Terminal Aerodrome Forecast
Issued by NWS

Home | Current Version | Previous Version | Text Only | Print | Product List | Glossary Off
Versions: 1 2 3 4 5 6 7 8 9 10 11 12 13 14 15 16 17 18 19

000
FTUS43 KGRB 311021 AAB
TAFATW
TAF AMD
KATW 311021Z 3110/0106 VRB03KT 1/2SM FG OVC003
     FM311400 22005KT 5SM BR FEW005 BKN012
     FM311600 21007KT P6SM SCT015 SCT250
     FM311900 19005KT P6SM BKN250=

USA.gov is the U.S. government's official web portal to all federal, state and local government web resources and services.